Aérodrome :
LOGIN :

S'inscrire | Disclaimer

   EN    FR    IT 

 










Légende :    VFR   VFR Marginal   IFR   IFR Intensif   IFR Très Intensif
Visi : 
Plafond : 
>= 8 km
>= 3000ft
5 à 8 km
1000 à 3000 ft
1500m à 5 km
500 à 1000 ft
800 à 1500m
200 à 500 ft
< 800m
< 200 ft
Symboles :   Orages  Brouillard  Fortes neiges  Fortes précipitations  Vent > 20 kt
SIGMETs :   Divers  Orages  Givrage  Turbulence  Onde Orograph.  Cendres Volcan.






- Altitude de l'aérodrome : 741 ft
- Code IATA : PED


LKPD - Pardubice AB

DERNIER METAR :
  • 272130Z 08007KT CAVOK 03/M04 Q0995 RMK BLU

METARs EXPIRÉS :
  • 272100Z 08007KT CAVOK 03/M04 Q0995 RMK BLU
  • 272030Z 07006KT CAVOK 03/M04 Q0995 NOSIG RMK BLU BLU
  • 272000Z 08007KT CAVOK 03/M04 Q0996 NOSIG
  • 271900Z 11006KT CAVOK 03/M03 Q0997 NOSIG RMK BLU BLU

TAF TAF LKPD
Valide du 27 à 18h jusqu'au 28 à 18h UTC


271700Z 2718/2818 10006KT CAVOK
BECMG 2719/2721 BKN030
BECMG 2722/2800 30010KT 5000 SNRA BKN020
TEMPO 2800/2806 3000 SN BKN013 OVC017
BECMG 2805/2807 30012KT 9999 NSW BKN030
TEMPO 2806/2815 30014G24KT 6000 SHRASN BKN020



MET'MAP, la Météo Aéronautique d'un coup d'oeil ! - Copyright ORBIFLY Décembre 2007 - Disclaimer

ORBIFLY MET'MAP TEAM :

Programmation & Développement : Alexandra Zaïnal
Sur une idée originale de : Baudouin d'Aumeries
Assistance à la programmation : Marc-Olivier Méhu
Soutien technique & logistique : Manuel Goepfert

Contact : metmap@orbifly.com




SOURCES & CREDITS :

   NOAA